createdAt,value
2023-01-15T00:01:46.272Z,74.47
2023-01-15T00:04:14.188Z,74.55
2023-01-15T00:06:42.055Z,74.31
2023-01-15T00:09:09.920Z,74.45
2023-01-15T00:11:37.804Z,74.32
2023-01-15T00:14:05.741Z,74.25
2023-01-15T00:16:33.635Z,74.32
2023-01-15T00:19:01.800Z,74.04
2023-01-15T00:21:29.682Z,74.44
2023-01-15T00:24:16.627Z,74.23
2023-01-15T00:27:03.181Z,73.96
2023-01-15T00:29:31.078Z,74.30
2023-01-15T00:31:58.994Z,74.09
2023-01-15T00:34:26.973Z,74.20
2023-01-15T00:36:54.854Z,73.99
2023-01-15T00:39:24.290Z,74.00
2023-01-15T00:41:52.245Z,73.78
2023-01-15T00:44:20.627Z,73.80
2023-01-15T00:46:48.526Z,73.53
2023-01-15T00:49:16.526Z,73.50
2023-01-15T00:51:44.466Z,73.71
2023-01-15T00:54:12.369Z,73.42
2023-01-15T00:56:40.252Z,73.48
2023-01-15T00:59:08.180Z,73.44
2023-01-15T01:01:36.166Z,73.67
2023-01-15T01:04:04.274Z,73.46
2023-01-15T01:06:32.159Z,73.43
2023-01-15T01:09:00.095Z,73.29
2023-01-15T01:11:28.775Z,73.20
2023-01-15T01:13:56.747Z,73.26
2023-01-15T01:16:24.663Z,73.45
2023-01-15T01:18:52.555Z,73.34
2023-01-15T01:21:20.509Z,73.21
2023-01-15T01:23:48.449Z,73.32
2023-01-15T01:26:16.392Z,73.24
2023-01-15T01:28:44.337Z,73.33
2023-01-15T01:31:12.504Z,73.19
2023-01-15T01:33:40.421Z,72.96
2023-01-15T01:36:08.289Z,72.96
2023-01-15T01:38:36.159Z,73.06
2023-01-15T01:41:04.040Z,72.98
2023-01-15T01:43:31.974Z,72.74
2023-01-15T01:45:59.902Z,72.70
2023-01-15T01:48:27.851Z,72.46
2023-01-15T01:50:55.724Z,72.58
2023-01-15T01:53:23.615Z,72.58
2023-01-15T01:55:51.597Z,72.34
2023-01-15T01:58:19.512Z,72.50
2023-01-15T02:00:47.447Z,72.16
2023-01-15T02:03:15.361Z,72.47
2023-01-15T02:05:43.216Z,72.04
2023-01-15T02:08:11.117Z,72.16
2023-01-15T02:10:39.027Z,72.05
2023-01-15T02:13:06.909Z,71.98
2023-01-15T02:15:34.810Z,71.88
2023-01-15T02:18:02.784Z,72.03
2023-01-15T02:20:31.274Z,71.99
2023-01-15T02:22:59.167Z,71.68
2023-01-15T02:25:27.043Z,71.61
2023-01-15T02:27:54.938Z,71.92
2023-01-15T02:30:23.427Z,71.62
2023-01-15T02:32:51.295Z,71.77
2023-01-15T02:35:19.203Z,71.40
2023-01-15T02:37:47.073Z,71.36
2023-01-15T02:40:15.015Z,71.48
2023-01-15T02:42:42.899Z,71.59
2023-01-15T02:45:10.772Z,71.56
2023-01-15T02:47:38.628Z,71.53
2023-01-15T02:50:06.486Z,71.40
2023-01-15T02:52:34.331Z,71.40
2023-01-15T02:55:02.215Z,71.21
2023-01-15T02:57:30.162Z,71.13
2023-01-15T02:59:58.036Z,71.06
2023-01-15T03:02:26.618Z,71.19
2023-01-15T03:04:54.634Z,71.06
2023-01-15T03:07:22.516Z,71.18
2023-01-15T03:09:50.421Z,71.19
2023-01-15T03:12:18.281Z,71.16
2023-01-15T03:14:46.183Z,71.11
2023-01-15T03:17:14.048Z,70.97
2023-01-15T03:19:41.955Z,70.94
2023-01-15T03:22:09.848Z,70.96
2023-01-15T03:24:37.726Z,70.65
2023-01-15T03:27:05.604Z,70.88
2023-01-15T03:29:33.472Z,70.92
2023-01-15T03:32:01.369Z,70.77
2023-01-15T03:34:29.245Z,70.72
2023-01-15T03:36:57.106Z,70.67
2023-01-15T03:39:24.991Z,70.45
2023-01-15T03:41:52.932Z,70.53
2023-01-15T03:44:20.837Z,70.46
2023-01-15T03:46:48.695Z,70.37
2023-01-15T03:49:16.620Z,70.42
2023-01-15T03:51:44.563Z,70.37
2023-01-15T03:54:12.509Z,70.50
2023-01-15T03:56:40.416Z,70.31
2023-01-15T03:59:08.296Z,70.34
2023-01-15T04:01:36.344Z,70.33
2023-01-15T04:04:04.426Z,70.24
2023-01-15T04:06:32.327Z,70.00
2023-01-15T04:09:00.215Z,70.15
2023-01-15T04:11:28.095Z,70.15
2023-01-15T04:13:56.054Z,70.04
2023-01-15T04:16:23.905Z,69.93
2023-01-15T04:18:51.807Z,69.97
2023-01-15T04:21:19.739Z,69.94
2023-01-15T04:23:47.614Z,69.72
2023-01-15T04:26:15.540Z,69.53
2023-01-15T04:28:43.456Z,69.44
2023-01-15T04:31:11.355Z,69.59
2023-01-15T04:33:40.269Z,69.34
2023-01-15T04:36:09.170Z,69.58
2023-01-15T04:38:37.036Z,69.65
2023-01-15T04:41:23.795Z,69.48
2023-01-15T04:44:07.402Z,69.42
2023-01-15T04:46:35.336Z,69.56
2023-01-15T04:49:03.293Z,69.59
2023-01-15T04:51:31.171Z,69.58
2023-01-15T04:53:59.644Z,69.35
2023-01-15T04:56:27.563Z,69.08
2023-01-15T04:58:55.487Z,68.82
2023-01-15T05:01:23.456Z,68.88
2023-01-15T05:03:51.347Z,69.02
2023-01-15T05:06:19.210Z,68.92
2023-01-15T05:08:47.139Z,69.08
2023-01-15T05:11:15.000Z,68.86
2023-01-15T05:13:42.857Z,68.72
2023-01-15T05:16:10.841Z,68.67
2023-01-15T05:18:38.750Z,68.64
2023-01-15T05:21:06.675Z,68.68
2023-01-15T05:23:34.554Z,68.61
2023-01-15T05:26:02.417Z,68.59
2023-01-15T05:28:30.261Z,68.52
2023-01-15T05:30:58.206Z,68.49
2023-01-15T05:33:26.098Z,68.62
2023-01-15T05:35:53.952Z,68.68
2023-01-15T05:38:21.879Z,68.65
2023-01-15T05:40:49.768Z,68.42
2023-01-15T05:43:17.638Z,68.31
2023-01-15T05:45:45.524Z,68.34
2023-01-15T05:48:13.385Z,68.45
2023-01-15T05:50:41.292Z,68.38
2023-01-15T05:53:09.189Z,68.16
2023-01-15T05:55:37.082Z,68.21
2023-01-15T05:58:04.958Z,68.30
2023-01-15T06:00:32.813Z,68.21
2023-01-15T06:03:00.802Z,68.20
2023-01-15T06:05:28.743Z,68.12
2023-01-15T06:07:56.617Z,68.19
2023-01-15T06:10:24.511Z,67.99
2023-01-15T06:12:52.359Z,67.93
2023-01-15T06:15:20.228Z,68.09
2023-01-15T06:17:48.110Z,68.13
2023-01-15T06:20:15.974Z,68.21
2023-01-15T06:22:43.854Z,68.21
2023-01-15T06:25:11.703Z,68.19
2023-01-15T06:27:39.620Z,68.32
2023-01-15T06:30:07.492Z,68.35
2023-01-15T06:32:35.489Z,68.16
2023-01-15T06:35:03.352Z,68.24
2023-01-15T06:37:31.241Z,68.36
2023-01-15T06:39:59.130Z,68.28
2023-01-15T06:42:56.294Z,68.10
2023-01-15T06:45:42.954Z,68.29
2023-01-15T06:48:13.674Z,68.22
2023-01-15T06:50:43.128Z,68.22
2023-01-15T06:53:11.270Z,68.33
2023-01-15T06:55:39.124Z,68.27
2023-01-15T06:58:07.062Z,68.30
2023-01-15T07:00:34.982Z,68.23
2023-01-15T07:03:02.887Z,68.16
2023-01-15T07:05:30.870Z,67.90
2023-01-15T07:07:58.721Z,68.03
2023-01-15T07:10:26.600Z,68.07
2023-01-15T07:12:54.463Z,67.88
2023-01-15T07:15:22.412Z,68.08
2023-01-15T07:17:50.294Z,67.85
2023-01-15T07:20:21.630Z,67.97
2023-01-15T07:22:49.524Z,67.95
2023-01-15T07:25:17.382Z,68.00
2023-01-15T07:27:45.249Z,67.99
2023-01-15T07:30:13.142Z,68.00
2023-01-15T07:32:40.991Z,67.82
2023-01-15T07:35:10.367Z,67.92
2023-01-15T07:37:39.864Z,67.96
2023-01-15T07:40:07.772Z,67.68
2023-01-15T07:42:54.305Z,67.68
2023-01-15T07:45:41.001Z,67.40
2023-01-15T07:48:27.912Z,67.64
2023-01-15T07:50:55.795Z,67.58
2023-01-15T07:53:23.670Z,67.56
2023-01-15T07:55:51.582Z,67.60
2023-01-15T07:58:19.480Z,67.54
2023-01-15T08:00:47.393Z,67.49
2023-01-15T08:03:15.296Z,67.58
2023-01-15T08:05:43.184Z,67.53
2023-01-15T08:08:11.354Z,67.62
2023-01-15T08:10:59.183Z,67.40
2023-01-15T08:13:45.820Z,67.46
2023-01-15T08:16:13.814Z,67.49
2023-01-15T08:18:41.752Z,67.47
2023-01-15T08:21:09.618Z,67.40
2023-01-15T08:23:37.504Z,67.30
2023-01-15T08:26:06.306Z,66.91
2023-01-15T08:28:34.191Z,67.06
2023-01-15T08:31:02.060Z,67.21
2023-01-15T08:33:29.945Z,67.13
2023-01-15T08:35:57.819Z,67.30
2023-01-15T08:38:25.684Z,66.96
2023-01-15T08:40:59.391Z,66.70
2023-01-15T08:43:27.265Z,66.99
2023-01-15T08:45:55.140Z,66.71
2023-01-15T08:48:23.072Z,66.61
2023-01-15T08:50:51.207Z,66.66
2023-01-15T08:53:21.968Z,66.41
2023-01-15T08:55:49.921Z,66.56
2023-01-15T08:58:17.820Z,66.64
2023-01-15T09:00:45.768Z,66.31
2023-01-15T09:03:13.728Z,66.40
2023-01-15T09:05:41.618Z,66.48
2023-01-15T09:08:09.527Z,66.02
2023-01-15T09:10:37.412Z,65.90
2023-01-15T09:13:05.276Z,66.01
2023-01-15T09:15:33.173Z,66.17
2023-01-15T09:18:01.017Z,66.09
2023-01-15T09:20:28.943Z,65.96
2023-01-15T09:22:56.793Z,65.86
2023-01-15T09:25:24.853Z,66.32
2023-01-15T09:27:52.765Z,66.21
2023-01-15T09:30:20.702Z,66.41
2023-01-15T09:32:48.634Z,66.35
2023-01-15T09:35:16.581Z,66.39
2023-01-15T09:37:44.489Z,66.00
2023-01-15T09:40:12.350Z,66.24
2023-01-15T09:42:41.720Z,65.90
2023-01-15T09:45:09.602Z,66.16
2023-01-15T09:47:37.473Z,66.22
2023-01-15T09:50:05.852Z,65.97
2023-01-15T09:52:33.771Z,65.97
2023-01-15T09:55:01.722Z,65.91
2023-01-15T09:57:29.618Z,66.00
2023-01-15T10:00:02.562Z,66.20
2023-01-15T10:02:30.506Z,65.83
2023-01-15T10:04:58.465Z,65.49
2023-01-15T10:07:26.476Z,65.61
2023-01-15T10:09:54.344Z,65.08
2023-01-15T10:12:39.980Z,65.14
2023-01-15T10:15:08.105Z,65.42
2023-01-15T10:17:35.977Z,65.32
2023-01-15T10:20:03.844Z,64.95
2023-01-15T10:22:31.734Z,64.99
2023-01-15T10:24:59.629Z,65.13
2023-01-15T10:27:27.587Z,64.91
2023-01-15T10:29:55.485Z,64.83
2023-01-15T10:32:24.320Z,64.44
2023-01-15T10:34:52.240Z,64.78
2023-01-15T10:37:20.696Z,64.34
2023-01-15T10:39:49.709Z,64.92
2023-01-15T10:42:17.611Z,64.69
2023-01-15T10:44:45.490Z,64.76
2023-01-15T10:47:13.812Z,64.63
2023-01-15T10:49:41.689Z,64.45
2023-01-15T10:52:09.583Z,64.39
2023-01-15T10:54:37.478Z,64.29
2023-01-15T10:57:10.298Z,64.64
2023-01-15T10:59:38.221Z,64.52
2023-01-15T11:02:06.204Z,64.09
2023-01-15T11:04:34.181Z,64.34
2023-01-15T11:07:03.580Z,64.23
2023-01-15T11:09:32.607Z,64.17
2023-01-15T11:12:00.483Z,64.01
2023-01-15T11:14:47.401Z,64.19
2023-01-15T11:17:34.372Z,64.41
2023-01-15T11:20:02.299Z,64.41
2023-01-15T11:22:30.189Z,64.40
2023-01-15T11:24:58.080Z,64.46
2023-01-15T11:27:25.992Z,64.24
2023-01-15T11:29:54.135Z,64.66
2023-01-15T11:32:22.014Z,64.49
2023-01-15T11:34:49.887Z,64.35
2023-01-15T11:37:17.751Z,64.62
2023-01-15T11:39:45.623Z,64.47
2023-01-15T11:42:32.134Z,64.39
2023-01-15T11:45:18.702Z,64.20
2023-01-15T11:48:05.114Z,64.09
2023-01-15T11:50:45.236Z,64.31
2023-01-15T11:53:13.120Z,64.41
2023-01-15T11:55:40.971Z,64.22
2023-01-15T11:58:08.827Z,64.27
2023-01-15T12:00:36.685Z,64.07
2023-01-15T12:03:04.592Z,64.19
2023-01-15T12:05:32.494Z,64.28
2023-01-15T12:08:00.393Z,64.36
2023-01-15T12:10:47.429Z,64.04
2023-01-15T12:13:15.301Z,64.12
2023-01-15T12:15:43.269Z,64.31
2023-01-15T12:18:11.160Z,64.30
2023-01-15T12:20:39.049Z,64.18
2023-01-15T12:23:08.887Z,63.84
2023-01-15T12:25:36.960Z,63.55
2023-01-15T12:28:04.938Z,63.84
2023-01-15T12:30:32.971Z,63.40
2023-01-15T12:33:00.841Z,63.66
2023-01-15T12:35:28.720Z,63.59
2023-01-15T12:37:56.637Z,63.77
2023-01-15T12:40:24.553Z,64.07
2023-01-15T12:43:11.337Z,64.02
2023-01-15T12:45:39.477Z,63.69
2023-01-15T12:48:07.348Z,64.13
2023-01-15T12:50:36.154Z,63.71
2023-01-15T12:53:04.199Z,63.68
2023-01-15T12:55:32.113Z,63.28
2023-01-15T12:57:59.978Z,63.50
2023-01-15T13:00:27.872Z,63.50
2023-01-15T13:02:55.786Z,63.49
2023-01-15T13:05:23.743Z,63.57
2023-01-15T13:07:51.639Z,63.11
2023-01-15T13:10:19.557Z,63.70
2023-01-15T13:12:47.439Z,63.11
2023-01-15T13:15:15.340Z,63.57
2023-01-15T13:17:44.864Z,63.65
2023-01-15T13:20:12.774Z,63.84
2023-01-15T13:22:40.659Z,63.79
2023-01-15T13:25:08.502Z,64.02
2023-01-15T13:27:36.357Z,64.17
2023-01-15T13:30:04.232Z,64.81
2023-01-15T13:32:32.855Z,65.03
2023-01-15T13:35:00.719Z,65.07
2023-01-15T13:37:28.641Z,65.37
2023-01-15T13:39:56.517Z,66.03
2023-01-15T13:42:33.387Z,66.22
2023-01-15T13:45:01.335Z,66.22
2023-01-15T13:47:29.198Z,66.56
2023-01-15T13:49:59.838Z,67.04
2023-01-15T13:52:27.796Z,67.30
2023-01-15T13:54:55.731Z,67.62
2023-01-15T13:57:23.590Z,67.82
2023-01-15T13:59:51.761Z,67.81
2023-01-15T14:02:19.811Z,68.21
2023-01-15T14:04:47.744Z,68.20
2023-01-15T14:07:15.601Z,68.45
2023-01-15T14:09:43.476Z,68.61
2023-01-15T14:12:11.364Z,68.93
2023-01-15T14:14:39.251Z,68.92
2023-01-15T14:17:07.156Z,68.94
2023-01-15T14:19:35.012Z,69.11
2023-01-15T14:22:02.888Z,68.89
2023-01-15T14:24:30.776Z,69.03
2023-01-15T14:26:58.648Z,68.92
2023-01-15T14:29:26.503Z,68.89
2023-01-15T14:31:54.651Z,68.79
2023-01-15T14:34:22.607Z,68.74
2023-01-15T14:36:50.444Z,68.67
2023-01-15T14:39:18.355Z,68.64
2023-01-15T14:42:05.039Z,68.70
2023-01-15T14:44:32.919Z,68.56
2023-01-15T14:47:00.785Z,68.68
2023-01-15T14:49:28.789Z,68.50
2023-01-15T14:51:56.702Z,68.51
2023-01-15T14:54:25.309Z,68.52
2023-01-15T14:56:53.178Z,68.22
2023-01-15T14:59:21.128Z,68.33
2023-01-15T15:01:49.835Z,68.36
2023-01-15T15:04:17.937Z,68.28
2023-01-15T15:06:45.818Z,68.27
2023-01-15T15:09:16.475Z,68.23
2023-01-15T15:12:03.142Z,68.40
2023-01-15T15:14:31.164Z,68.58
2023-01-15T15:16:59.115Z,68.73
2023-01-15T15:19:27.006Z,68.88
2023-01-15T15:21:54.876Z,68.99
2023-01-15T15:24:22.769Z,68.82
2023-01-15T15:26:50.724Z,68.84
2023-01-15T15:29:18.976Z,69.12
2023-01-15T15:31:48.367Z,69.08
2023-01-15T15:34:16.252Z,69.21
2023-01-15T15:36:44.113Z,69.26
2023-01-15T15:39:12.009Z,69.22
2023-01-15T15:41:58.797Z,69.32
2023-01-15T15:44:45.560Z,69.71
2023-01-15T15:47:33.758Z,69.92
2023-01-15T15:50:01.732Z,70.11
2023-01-15T15:52:29.893Z,70.29
2023-01-15T15:54:57.854Z,70.35
2023-01-15T15:57:25.736Z,70.53
2023-01-15T15:59:53.688Z,70.77
2023-01-15T16:02:21.782Z,70.46
2023-01-15T16:04:49.899Z,70.51
2023-01-15T16:07:18.007Z,70.67
2023-01-15T16:09:45.893Z,70.67
2023-01-15T16:12:13.779Z,70.89
2023-01-15T16:14:42.000Z,70.84
2023-01-15T16:17:09.900Z,70.89
2023-01-15T16:19:37.786Z,70.99
2023-01-15T16:22:05.667Z,70.95
2023-01-15T16:24:33.573Z,71.12
2023-01-15T16:27:01.485Z,70.95
2023-01-15T16:29:29.441Z,71.04
2023-01-15T16:31:59.993Z,71.04
2023-01-15T16:34:29.880Z,71.10
2023-01-15T16:36:57.832Z,71.13
2023-01-15T16:39:25.753Z,71.26
2023-01-15T16:41:53.704Z,71.36
2023-01-15T16:44:21.575Z,71.44
2023-01-15T16:46:49.447Z,71.47
2023-01-15T16:49:17.344Z,71.52
2023-01-15T16:51:45.217Z,71.38
2023-01-15T16:54:13.091Z,71.54
2023-01-15T16:56:41.679Z,71.56
2023-01-15T16:59:09.545Z,71.62
2023-01-15T17:01:38.546Z,71.80
2023-01-15T17:04:06.568Z,71.87
2023-01-15T17:06:34.427Z,71.75
2023-01-15T17:09:02.370Z,71.86
2023-01-15T17:11:30.410Z,71.81
2023-01-15T17:13:58.295Z,71.92
2023-01-15T17:19:30.932Z,71.83
2023-01-15T17:21:58.880Z,71.96
2023-01-15T17:27:49.842Z,72.25
2023-01-15T17:30:17.711Z,72.03
2023-01-15T17:32:45.593Z,72.22
2023-01-15T17:35:13.573Z,72.39
2023-01-15T17:37:41.452Z,72.39
2023-01-15T17:40:09.354Z,72.49
2023-01-15T17:42:37.230Z,72.57
2023-01-15T17:45:05.125Z,72.92
2023-01-15T17:47:32.988Z,72.99
2023-01-15T17:50:00.921Z,73.16
2023-01-15T17:52:28.890Z,73.28
2023-01-15T17:55:26.828Z,73.53
2023-01-15T17:58:13.405Z,73.40
2023-01-15T18:01:00.427Z,73.64
2023-01-15T18:07:01.872Z,74.36
2023-01-15T18:09:29.739Z,74.53
2023-01-15T18:11:57.661Z,74.52
2023-01-15T18:14:26.565Z,74.68
2023-01-15T18:17:12.885Z,74.88
2023-01-15T18:19:40.813Z,75.00
2023-01-15T18:22:10.628Z,75.20
2023-01-15T18:24:38.509Z,75.43
2023-01-15T18:27:06.392Z,75.69
2023-01-15T18:29:38.823Z,75.91
2023-01-15T18:32:07.202Z,76.12
2023-01-15T18:34:47.004Z,76.17
2023-01-15T18:37:14.864Z,76.25
2023-01-15T18:39:42.870Z,76.32
2023-01-15T18:42:10.726Z,76.68
2023-01-15T18:44:57.606Z,76.94
2023-01-15T18:47:25.592Z,77.01
2023-01-15T18:49:55.420Z,77.09
2023-01-15T18:52:52.929Z,77.03
2023-01-15T18:55:25.995Z,77.24
2023-01-15T18:57:53.968Z,77.35
2023-01-15T19:00:21.977Z,77.79
2023-01-15T19:02:50.073Z,77.96
2023-01-15T19:05:18.910Z,78.91
2023-01-15T19:07:46.847Z,79.48
2023-01-15T19:10:14.773Z,79.48
2023-01-15T19:12:44.025Z,78.87
2023-01-15T19:15:30.623Z,79.08
2023-01-15T19:18:17.387Z,79.32
2023-01-15T19:20:45.428Z,79.48
2023-01-15T19:23:13.368Z,79.37
2023-01-15T19:25:41.294Z,79.49
2023-01-15T19:28:09.260Z,79.28
2023-01-15T19:30:37.130Z,80.03
2023-01-15T19:33:05.059Z,80.17
2023-01-15T19:35:33.047Z,80.27
2023-01-15T19:38:00.951Z,80.45
2023-01-15T19:40:29.466Z,80.47
2023-01-15T19:43:16.306Z,80.26
2023-01-15T19:46:03.231Z,80.44
2023-01-15T19:48:49.809Z,80.44
2023-01-15T19:51:17.718Z,80.40
2023-01-15T19:53:45.665Z,80.41
2023-01-15T19:56:13.555Z,80.51
2023-01-15T19:58:41.446Z,80.25
2023-01-15T20:01:10.364Z,80.47
2023-01-15T20:03:38.414Z,80.57
2023-01-15T20:06:06.280Z,80.67
2023-01-15T20:08:34.203Z,80.68
2023-01-15T20:11:06.673Z,80.92
2023-01-15T20:13:51.376Z,80.91
2023-01-15T20:16:19.414Z,80.83
2023-01-15T20:18:47.313Z,80.89
2023-01-15T20:21:16.523Z,80.96
2023-01-15T20:23:44.395Z,81.09
2023-01-15T20:26:12.267Z,81.38
2023-01-15T20:28:42.789Z,81.43
2023-01-15T20:31:10.744Z,81.28
2023-01-15T20:33:38.650Z,81.25
2023-01-15T20:36:06.579Z,81.49
2023-01-15T20:38:34.473Z,81.55
2023-01-15T20:41:22.287Z,81.74
2023-01-15T20:44:09.099Z,81.95
2023-01-15T20:46:37.197Z,81.74
2023-01-15T20:49:24.023Z,81.58
2023-01-15T20:51:52.996Z,81.73
2023-01-15T20:54:20.862Z,81.59
2023-01-15T20:56:48.802Z,81.74
2023-01-15T20:59:16.676Z,81.61
2023-01-15T21:01:44.657Z,81.32
2023-01-15T21:04:14.052Z,81.28
2023-01-15T21:06:42.094Z,81.23
2023-01-15T21:09:09.978Z,81.28
2023-01-15T21:11:37.879Z,81.10
2023-01-15T21:14:05.878Z,81.22
2023-01-15T21:16:33.838Z,81.18
2023-01-15T21:19:04.625Z,81.00
2023-01-15T21:21:32.587Z,80.89
2023-01-15T21:24:00.460Z,81.00
2023-01-15T21:26:29.269Z,81.04
2023-01-15T21:28:57.269Z,81.19
2023-01-15T21:31:25.294Z,81.23
2023-01-15T21:33:53.212Z,81.08
2023-01-15T21:36:21.094Z,81.08
2023-01-15T21:38:48.975Z,81.25
2023-01-15T21:41:16.897Z,81.30
2023-01-15T21:44:03.576Z,81.41
2023-01-15T21:46:31.469Z,81.28
2023-01-15T21:48:59.670Z,81.05
2023-01-15T21:51:27.616Z,80.97
2023-01-15T21:53:55.697Z,81.19
2023-01-15T21:56:23.666Z,81.20
2023-01-15T21:58:51.576Z,80.98
2023-01-15T22:01:21.109Z,80.90
2023-01-15T22:03:49.236Z,80.72
2023-01-15T22:06:17.180Z,80.56
2023-01-15T22:08:45.047Z,80.40
2023-01-15T22:11:12.903Z,80.56
2023-01-15T22:13:41.065Z,80.63
2023-01-15T22:16:09.157Z,80.62
2023-01-15T22:18:37.035Z,80.79
2023-01-15T22:21:05.015Z,80.67
2023-01-15T22:23:33.053Z,80.64
2023-01-15T22:26:00.936Z,80.71
2023-01-15T22:28:28.827Z,81.00
2023-01-15T22:30:56.748Z,80.85
2023-01-15T22:33:24.724Z,81.10
2023-01-15T22:35:52.626Z,80.87
2023-01-15T22:38:20.499Z,80.85
2023-01-15T22:40:48.375Z,80.67
2023-01-15T22:43:16.313Z,80.70
2023-01-15T22:45:44.259Z,80.64
2023-01-15T22:48:12.192Z,80.64
2023-01-15T22:50:40.121Z,80.77
2023-01-15T22:53:08.027Z,80.57
2023-01-15T22:55:36.809Z,80.56
2023-01-15T22:58:04.781Z,80.50
2023-01-15T23:00:32.639Z,80.61
2023-01-15T23:03:06.683Z,80.55
2023-01-15T23:05:34.567Z,80.62
2023-01-15T23:08:02.493Z,80.54
2023-01-15T23:10:30.412Z,80.53
2023-01-15T23:12:58.291Z,80.42
2023-01-15T23:15:28.574Z,80.44
2023-01-15T23:17:56.636Z,80.32
2023-01-15T23:20:24.565Z,80.56
2023-01-15T23:22:52.535Z,80.43
2023-01-15T23:25:20.421Z,80.41
2023-01-15T23:27:48.301Z,80.37
2023-01-15T23:30:16.200Z,80.16
2023-01-15T23:32:44.296Z,80.16
2023-01-15T23:35:12.169Z,80.31
2023-01-15T23:37:40.048Z,80.41
2023-01-15T23:40:08.016Z,80.29
2023-01-15T23:42:54.604Z,80.33
2023-01-15T23:45:41.191Z,80.25
2023-01-15T23:48:09.086Z,79.81
2023-01-15T23:50:37.041Z,80.14
2023-01-15T23:53:05.800Z,80.21
2023-01-15T23:55:33.675Z,80.27
2023-01-15T23:58:01.593Z,80.31
